createdAt,value
2022-11-28T00:03:35.372Z,100913.41
2022-11-28T00:08:38.667Z,100909.88
2022-11-28T00:13:40.442Z,100929.16
2022-11-28T00:18:42.203Z,100919.50
2022-11-28T00:23:45.697Z,100906.41
2022-11-28T00:28:47.697Z,100902.88
2022-11-28T00:33:49.566Z,100908.16
2022-11-28T00:38:52.663Z,100895.06
2022-11-28T00:43:54.610Z,100896.81
2022-11-28T00:48:57.374Z,100882.84
2022-11-28T00:54:01.995Z,100854.91
2022-11-28T00:59:03.958Z,100847.91
2022-11-28T01:04:06.571Z,100826.94
2022-11-28T01:09:10.835Z,100822.59
2022-11-28T01:14:12.724Z,100812.97
2022-11-28T01:19:14.728Z,100830.44
2022-11-28T01:24:17.851Z,100808.63
2022-11-28T01:29:19.638Z,100809.50
2022-11-28T01:34:21.485Z,100794.66
2022-11-28T01:39:24.571Z,100794.66
2022-11-28T01:45:11.954Z,100795.50
2022-11-28T01:50:13.820Z,100793.75
2022-11-28T01:55:17.701Z,100785.94
2022-11-28T02:00:20.043Z,100774.56
2022-11-28T02:05:21.975Z,100774.59
2022-11-28T02:10:27.065Z,100773.72
2022-11-28T02:15:36.285Z,100752.78
2022-11-28T02:21:12.239Z,100735.34
2022-11-28T02:26:31.551Z,100729.25
2022-11-28T02:31:51.123Z,100730.94
2022-11-28T02:36:55.748Z,100743.16
2022-11-28T02:42:04.201Z,100737.06
2022-11-28T02:47:09.077Z,100734.44
2022-11-28T02:52:13.051Z,100728.31
2022-11-28T02:57:14.774Z,100756.28
2022-11-28T03:02:19.867Z,100733.56
2022-11-28T03:07:28.958Z,100745.72
2022-11-28T03:12:34.037Z,100730.06
2022-11-28T03:17:42.181Z,100780.69
2022-11-28T03:22:46.790Z,100737.00
2022-11-28T03:27:50.052Z,100696.88
2022-11-28T03:32:53.931Z,100661.94
2022-11-28T03:37:57.311Z,100643.69
2022-11-28T03:43:00.437Z,100641.03
2022-11-28T03:48:06.766Z,100598.22
2022-11-28T03:53:10.096Z,100610.44
2022-11-28T03:58:13.443Z,100695.13
2022-11-28T04:03:21.589Z,100721.31
2022-11-28T04:08:25.130Z,100708.16
2022-11-28T04:13:29.099Z,100713.41
2022-11-28T04:18:35.547Z,100710.78
2022-11-28T04:23:37.808Z,100698.44
2022-11-28T04:28:39.636Z,100692.28
2022-11-28T04:33:44.279Z,100691.47
2022-11-28T04:38:49.409Z,100650.47
2022-11-28T04:43:53.170Z,100654.88
2022-11-28T04:48:56.242Z,100636.69
2022-11-28T04:54:00.652Z,100644.38
2022-11-28T04:59:04.389Z,100627.84
2022-11-28T05:04:07.480Z,100619.13
2022-11-28T05:09:10.065Z,100620.09
2022-11-28T05:14:11.834Z,100615.69
2022-11-28T05:19:15.789Z,100630.47
2022-11-28T05:24:17.528Z,100625.25
2022-11-28T05:29:19.257Z,100612.09
2022-11-28T05:34:22.333Z,100614.81
2022-11-28T05:39:24.111Z,100615.69
2022-11-28T05:44:27.228Z,100618.31
2022-11-28T05:49:30.488Z,100616.59
2022-11-28T05:54:32.266Z,100610.41
2022-11-28T05:59:34.161Z,100614.75
2022-11-28T06:04:38.032Z,100605.13
2022-11-28T06:09:39.860Z,100614.72
2022-11-28T06:14:41.648Z,100605.03
2022-11-28T06:19:45.017Z,100612.00
2022-11-28T06:24:46.970Z,100605.06
2022-11-28T06:29:48.679Z,100608.50
2022-11-28T06:34:51.690Z,100609.56
2022-11-28T06:39:53.440Z,100607.69
2022-11-28T06:44:55.146Z,100611.16
2022-11-28T06:49:58.406Z,100619.13
2022-11-28T06:55:00.135Z,100621.66
2022-11-28T07:00:02.219Z,100620.72
2022-11-28T07:05:06.282Z,100612.88
2022-11-28T07:10:08.576Z,100621.59
2022-11-28T07:15:11.358Z,100626.03
2022-11-28T07:20:14.960Z,100632.09
2022-11-28T07:25:16.867Z,100637.34
2022-11-28T07:30:20.009Z,100645.03
2022-11-28T07:35:23.107Z,100654.59
2022-11-28T07:40:24.847Z,100652.94
2022-11-28T07:45:36.999Z,100657.25
2022-11-28T07:50:49.652Z,100653.69
2022-11-28T07:55:51.355Z,100665.22
2022-11-28T08:00:53.409Z,100671.44
2022-11-28T08:06:02.966Z,100660.94
2022-11-28T08:11:06.036Z,100667.94
2022-11-28T08:16:08.568Z,100656.56
2022-11-28T08:21:12.553Z,100654.81
2022-11-28T08:26:15.675Z,100653.84
2022-11-28T08:31:18.563Z,100639.81
2022-11-28T08:36:21.800Z,100645.13
2022-11-28T08:41:24.006Z,100643.28
2022-11-28T08:46:25.838Z,100658.19
2022-11-28T08:51:30.358Z,100657.34
2022-11-28T08:56:32.099Z,100638.81
2022-11-28T09:01:34.364Z,100644.22
2022-11-28T09:06:39.603Z,100655.59
2022-11-28T09:11:41.433Z,100642.41
2022-11-28T09:16:43.231Z,100641.53
2022-11-28T09:21:46.396Z,100633.59
2022-11-28T09:26:48.352Z,100644.91
2022-11-28T09:31:50.174Z,100637.72
2022-11-28T09:36:53.295Z,100636.13
2022-11-28T09:41:58.572Z,100637.09
2022-11-28T09:47:00.734Z,100648.44
2022-11-28T09:52:06.422Z,100665.09
2022-11-28T09:57:10.822Z,100657.34
2022-11-28T10:02:21.225Z,100653.69
2022-11-28T10:07:28.997Z,100640.63
2022-11-28T10:12:36.265Z,100642.47
2022-11-28T10:17:44.111Z,100645.88
2022-11-28T10:22:48.695Z,100634.47
2022-11-28T10:27:50.678Z,100636.16
2022-11-28T10:32:59.211Z,100638.75
2022-11-28T10:38:02.314Z,100637.75
2022-11-28T10:43:06.246Z,100631.81
2022-11-28T10:48:39.495Z,100622.81
2022-11-28T10:53:47.673Z,100616.69
2022-11-28T10:58:52.630Z,100613.53
2022-11-28T11:03:54.353Z,100609.63
2022-11-28T11:08:57.513Z,100609.63
2022-11-28T11:14:01.177Z,100605.09
2022-11-28T11:19:03.257Z,100610.00
2022-11-28T11:24:15.902Z,100611.88
2022-11-28T11:29:21.687Z,100621.03
2022-11-28T11:34:23.614Z,100617.53
2022-11-28T11:39:26.735Z,100614.16
2022-11-28T11:44:30.666Z,100614.69
2022-11-28T11:49:34.674Z,100611.28
2022-11-28T11:54:37.721Z,100605.16
2022-11-28T11:59:41.107Z,100612.16
2022-11-28T12:04:47.207Z,100611.28
2022-11-28T12:09:54.655Z,100598.34
2022-11-28T12:14:56.626Z,100595.88
2022-11-28T12:20:06.113Z,100594.78
2022-11-28T12:25:12.535Z,100595.69
2022-11-28T12:30:25.693Z,100589.38
2022-11-28T12:35:30.457Z,100578.00
2022-11-28T12:40:35.849Z,100565.56
2022-11-28T12:45:42.056Z,100578.19
2022-11-28T12:50:45.515Z,100580.03
2022-11-28T12:55:50.583Z,100581.00
2022-11-28T13:00:55.531Z,100587.13
2022-11-28T13:05:59.883Z,100575.03
2022-11-28T13:11:09.112Z,100562.94
2022-11-28T13:16:15.061Z,100563.75
2022-11-28T13:21:22.756Z,100586.31
2022-11-28T13:26:37.806Z,100579.19
2022-11-28T13:31:41.027Z,100589.78
2022-11-28T13:42:52.279Z,100583.59
2022-11-28T13:47:38.596Z,100585.38
2022-11-28T13:52:42.636Z,100595.69
2022-11-28T13:57:45.665Z,100599.25
2022-11-28T14:02:48.599Z,100591.09
2022-11-28T14:07:50.420Z,100602.47
2022-11-28T14:13:03.029Z,100599.59
2022-11-28T14:18:39.259Z,100595.44
2022-11-28T14:23:38.928Z,100610.25
2022-11-28T14:28:43.454Z,100615.56
2022-11-28T14:33:45.427Z,100616.28
2022-11-28T14:39:00.649Z,100609.19
2022-11-28T14:44:40.371Z,100603.19
2022-11-28T14:49:43.648Z,100608.53
2022-11-28T14:54:45.473Z,100611.16
2022-11-28T14:59:48.057Z,100611.34
2022-11-28T15:04:56.218Z,100622.81
2022-11-28T15:10:07.414Z,100613.06
2022-11-28T15:15:12.645Z,100622.81
2022-11-28T15:20:18.966Z,100627.16
2022-11-28T15:25:21.982Z,100620.94
2022-11-28T15:30:26.604Z,100621.84
2022-11-28T15:35:30.431Z,100620.13
2022-11-28T15:40:34.024Z,100626.31
2022-11-28T15:45:35.820Z,100634.94
2022-11-28T15:50:49.364Z,100632.19
2022-11-28T15:56:09.218Z,100627.03
2022-11-28T16:01:12.916Z,100630.59
2022-11-28T16:06:16.115Z,100633.16
2022-11-28T16:11:19.718Z,100623.59
2022-11-28T16:16:23.365Z,100638.50
2022-11-28T16:21:29.178Z,100632.41
2022-11-28T16:26:33.052Z,100633.28
2022-11-28T16:31:34.939Z,100632.41
2022-11-28T16:36:38.253Z,100635.91
2022-11-28T16:41:40.790Z,100625.31
2022-11-28T16:46:49.611Z,100633.28
2022-11-28T16:51:52.753Z,100638.53
2022-11-28T16:56:57.396Z,100628.94
2022-11-28T17:01:59.165Z,100637.63
2022-11-28T17:07:05.243Z,100638.44
2022-11-28T17:12:08.097Z,100641.06
2022-11-28T17:17:12.135Z,100644.56
2022-11-28T17:22:16.602Z,100645.47
2022-11-28T17:27:18.405Z,100641.13
2022-11-28T17:32:20.289Z,100642.03
2022-11-28T17:37:23.405Z,100638.50
2022-11-28T17:42:25.111Z,100639.38
2022-11-28T17:47:27.944Z,100643.75
2022-11-28T17:52:32.521Z,100642.88
2022-11-28T17:57:34.380Z,100654.91
2022-11-28T18:02:36.176Z,100652.47
2022-11-28T18:07:39.477Z,100655.09
2022-11-28T18:12:43.217Z,100652.47
2022-11-28T18:17:45.047Z,100652.47
2022-11-28T18:22:49.234Z,100660.31
2022-11-28T18:27:51.255Z,100669.06
2022-11-28T18:32:54.051Z,100663.81
2022-11-28T18:37:57.511Z,100670.78
2022-11-28T18:43:00.161Z,100670.78
2022-11-28T18:48:02.690Z,100677.78
2022-11-28T18:53:06.206Z,100681.25
2022-11-28T18:58:07.925Z,100676.00
2022-11-28T19:03:10.036Z,100674.22
2022-11-28T19:08:14.198Z,100677.59
2022-11-28T19:13:16.214Z,100681.09
2022-11-28T19:18:18.108Z,100675.94
2022-11-28T19:23:21.307Z,100682.06
2022-11-28T19:28:23.153Z,100682.09
2022-11-28T19:33:24.922Z,100679.50
2022-11-28T19:38:28.052Z,100686.44
2022-11-28T19:43:29.949Z,100681.22
2022-11-28T19:48:32.908Z,100688.19
2022-11-28T19:53:37.658Z,100699.53
2022-11-28T19:58:39.712Z,100699.50
2022-11-28T20:03:41.736Z,100697.75
2022-11-28T20:08:45.118Z,100705.59
2022-11-28T20:13:49.209Z,100712.59
2022-11-28T20:18:51.164Z,100716.09
2022-11-28T20:23:55.071Z,100723.13
2022-11-28T20:28:56.974Z,100716.13
2022-11-28T20:33:59.527Z,100724.84
2022-11-28T20:39:02.791Z,100721.38
2022-11-28T20:44:04.907Z,100718.78
2022-11-28T20:49:07.628Z,100729.22
2022-11-28T20:54:11.898Z,100719.63
2022-11-28T20:59:14.163Z,100721.38
2022-11-28T21:04:16.475Z,100720.50
2022-11-28T21:09:20.475Z,100724.00
2022-11-28T21:14:22.485Z,100720.47
2022-11-28T21:19:24.301Z,100722.22
2022-11-28T21:24:27.391Z,100730.13
2022-11-28T21:29:29.268Z,100726.56
2022-11-28T21:34:30.990Z,100730.97
2022-11-28T21:39:34.074Z,100725.75
2022-11-28T21:44:35.793Z,100726.63
2022-11-28T21:49:37.538Z,100732.72
2022-11-28T21:54:40.648Z,100725.72
2022-11-28T21:59:42.820Z,100730.09
2022-11-28T22:04:45.122Z,100712.66
2022-11-28T22:09:48.664Z,100720.50
2022-11-28T22:14:50.644Z,100720.50
2022-11-28T22:19:52.426Z,100719.63
2022-11-28T22:24:55.813Z,100724.81
2022-11-28T22:29:57.616Z,100730.91
2022-11-28T22:34:59.544Z,100724.84
2022-11-28T22:40:02.766Z,100732.72
2022-11-28T22:45:06.096Z,100741.44
2022-11-28T22:50:08.677Z,100740.56
2022-11-28T22:55:11.811Z,100744.06
2022-11-28T23:00:16.524Z,100745.81
2022-11-28T23:05:18.495Z,100749.28
2022-11-28T23:10:21.999Z,100756.25
2022-11-28T23:15:24.154Z,100757.13
2022-11-28T23:20:26.896Z,100749.28
2022-11-28T23:25:30.267Z,100753.66
2022-11-28T23:30:32.544Z,100759.75
2022-11-28T23:35:34.328Z,100751.06
2022-11-28T23:40:37.378Z,100766.72
2022-11-28T23:45:39.204Z,100762.34
2022-11-28T23:50:41.252Z,100761.44
2022-11-28T23:55:44.504Z,100758.88
